Time;durP1;ratioP1;P1;durP2;ratioP2;P2;SDS_P1;SDS_P2;PMS_P1;PMS_P2;Temp;Humidity;BMP_temperature;BMP_pressure;BME280_temperature;BME280_humidity;BME280_pressure;Samples;Min_cycle;Max_cycle;Signal;HPM_P1;HPM_P2
2022/09/05 00:02:08;;;;;;;10.73;5.97;;;;;;;15.11;59.72;101341.63;1805506;78;21279;-70
2022/09/05 00:04:53;;;;;;;10.57;5.97;;;;;;;15.10;59.73;101344.83;1765139;80;21160;-71
2022/09/05 00:07:32;;;;;;;10.87;6.23;;;;;;;15.10;59.77;101345.37;1782654;78;21681;-71
2022/09/05 00:10:43;;;;;;;9.67;6.27;;;;;;;15.11;59.94;101341.09;1777367;80;22246;-71
2022/09/05 00:13:21;;;;;;;8.20;4.77;;;;;;;15.12;60.14;101340.00;1804031;78;21344;-71
2022/09/05 00:16:36;;;;;;;9.00;5.03;;;;;;;15.13;59.55;101330.84;1771239;79;21299;-71
2022/09/05 00:19:30;;;;;;;8.50;4.90;;;;;;;15.14;58.81;101323.06;1771360;80;21252;-71
2022/09/05 00:22:30;;;;;;;10.60;5.30;;;;;;;15.15;57.89;101319.28;1812042;78;21082;-69
2022/09/05 00:25:26;;;;;;;7.83;4.37;;;;;;;15.17;57.72;101323.07;1824418;77;21790;-71
2022/09/05 00:28:13;;;;;;;8.23;5.20;;;;;;;15.13;57.15;101310.66;1812972;78;21210;-70
2022/09/05 00:31:00;;;;;;;6.97;4.63;;;;;;;15.12;56.16;101310.95;1811419;78;21262;-71
2022/09/05 00:34:07;;;;;;;7.13;3.67;;;;;;;15.12;55.29;101311.75;1825495;78;21221;-71
2022/09/05 00:36:52;;;;;;;9.57;4.30;;;;;;;15.16;53.71;101306.09;1825906;78;21230;-71
2022/09/05 00:39:23;;;;;;;8.63;4.30;;;;;;;15.21;51.47;101300.72;1818913;78;21912;-70
2022/09/05 00:41:51;;;;;;;8.23;4.08;;;;;;;15.29;50.88;101304.75;1792229;78;21688;-70
2022/09/05 00:44:19;;;;;;;8.37;4.37;;;;;;;15.36;50.43;101297.75;1792469;80;21014;-71
2022/09/05 00:47:06;;;;;;;6.80;4.37;;;;;;;15.39;50.00;101296.66;1766651;80;21326;-71
2022/09/05 00:49:43;;;;;;;8.37;4.30;;;;;;;15.43;50.30;101296.92;1777475;80;21277;-70
2022/09/05 00:52:33;;;;;;;7.33;4.53;;;;;;;15.45;49.55;101291.55;1791408;80;21320;-70
2022/09/05 00:55:21;;;;;;;7.53;4.50;;;;;;;15.45;48.47;101292.89;1825610;78;21267;-71
2022/09/05 00:57:59;;;;;;;7.67;4.30;;;;;;;15.47;48.52;101293.98;1783776;80;21578;-71
2022/09/05 01:00:47;;;;;;;8.13;5.00;;;;;;;15.49;49.30;101291.81;1810656;77;21225;-70
2022/09/05 01:03:54;;;;;;;9.30;5.37;;;;;;;15.48;51.04;101290.20;1794245;78;21324;-71
2022/09/05 01:06:48;;;;;;;9.10;5.50;;;;;;;15.39;52.44;101292.62;1800018;78;21105;-71
2022/09/05 01:09:45;;;;;;;8.60;5.20;;;;;;;15.29;53.39;101289.14;1792080;78;21308;-70
2022/09/05 01:12:33;;;;;;;8.73;5.40;;;;;;;15.22;53.92;101284.84;1793332;80;21291;-71
2022/09/05 01:15:08;;;;;;;8.53;5.30;;;;;;;15.21;54.40;101285.92;1818012;78;21259;-69
2022/09/05 01:18:02;;;;;;;9.13;5.70;;;;;;;15.20;54.90;101285.66;1798519;78;21371;-71
2022/09/05 01:21:12;;;;;;;7.57;5.30;;;;;;;15.17;55.43;101284.86;1774448;80;21209;-71
2022/09/05 01:24:25;;;;;;;7.97;5.43;;;;;;;15.13;55.81;101283.76;1786953;80;21223;-71
2022/09/05 01:26:58;;;;;;;;;;;;;;;15.10;55.99;101280.26;1807365;78;21154;-71
2022/09/05 01:29:59;;;;;;;7.97;5.23;;;;;;;15.09;55.98;101280.00;1775883;80;20472;-71
2022/09/05 01:32:49;;;;;;;8.78;5.22;;;;;;;15.07;56.01;101278.64;1764142;80;21299;-71
2022/09/05 01:35:50;;;;;;;8.47;5.43;;;;;;;15.06;55.95;101272.47;1799363;78;21134;-71
2022/09/05 01:38:55;;;;;;;9.30;5.50;;;;;;;15.02;55.84;101270.05;1806452;78;21366;-71
2022/09/05 01:41:37;;;;;;;9.37;5.07;;;;;;;14.98;55.72;101268.98;1793735;79;21294;-70
2022/09/05 01:44:18;;;;;;;8.30;5.60;;;;;;;14.93;55.27;101268.97;1789480;80;21338;-71
2022/09/05 01:47:04;;;;;;;8.03;4.90;;;;;;;14.87;55.27;101274.06;1788233;80;21137;-71
2022/09/05 01:49:43;;;;;;;7.80;4.73;;;;;;;14.83;54.83;101266.27;1791564;80;21262;-71
2022/09/05 01:52:48;;;;;;;7.87;5.03;;;;;;;14.76;53.44;101269.22;1775605;78;21111;-71
2022/09/05 01:55:32;;;;;;;7.80;4.87;;;;;;;14.71;52.61;101271.37;1792330;80;21753;-71
2022/09/05 01:58:21;;;;;;;11.30;5.97;;;;;;;14.65;50.84;101263.03;1794029;79;21173;-70
2022/09/05 02:00:59;;;;;;;8.47;5.20;;;;;;;14.64;50.91;101261.94;1822760;78;21274;-70
2022/09/05 02:03:42;;;;;;;9.60;5.43;;;;;;;14.64;51.58;101268.15;1790403;80;21424;-71
2022/09/05 02:06:29;;;;;;;8.60;5.20;;;;;;;14.64;51.34;101262.77;1788069;78;21161;-71
2022/09/05 02:09:36;;;;;;;8.97;5.50;;;;;;;14.65;51.50;101268.41;1770863;78;21187;-71
2022/09/05 02:12:31;;;;;;;8.37;5.10;;;;;;;14.65;51.11;101259.00;1773877;80;21300;-70
2022/09/05 02:15:03;;;;;;;9.17;5.47;;;;;;;14.68;51.31;101259.02;1771340;80;21253;-71
2022/09/05 02:17:58;;;;;;;7.72;4.90;;;;;;;14.66;51.93;101256.57;1793521;78;21461;-70
2022/09/05 02:20:33;;;;;;;9.60;5.67;;;;;;;14.63;52.23;101261.14;1811382;77;21018;-71
2022/09/05 02:23:14;;;;;;;8.23;4.87;;;;;;;14.56;52.85;101260.59;1823279;78;20924;-71
2022/09/05 02:25:47;;;;;;;8.15;5.17;;;;;;;14.46;53.75;101259.20;1793504;78;21251;-71
2022/09/05 02:28:43;;;;;;;9.17;5.80;;;;;;;14.39;54.65;101268.86;1805021;78;21062;-70
2022/09/05 02:31:21;;;;;;;8.83;6.10;;;;;;;14.39;55.68;101263.48;1792851;80;21207;-71
2022/09/05 02:33:58;;;;;;;9.90;6.10;;;;;;;14.40;56.18;101263.74;1825548;78;21812;-71
2022/09/05 02:36:46;;;;;;;9.10;5.80;;;;;;;14.40;56.07;101262.41;1819824;78;21567;-71
2022/09/05 02:39:35;;;;;;;9.07;5.73;;;;;;;14.43;56.32;101259.73;1784567;79;21023;-70
2022/09/05 02:42:20;;;;;;;11.20;5.50;;;;;;;14.48;56.53;101253.84;1825744;78;21335;-71
2022/09/05 02:45:14;;;;;;;11.00;5.70;;;;;;;14.53;56.65;101254.40;1821061;78;21525;-70
2022/09/05 02:48:00;;;;;;;9.70;5.60;;;;;;;14.57;56.88;101247.41;1774174;80;21187;-71
2022/09/05 02:50:33;;;;;;;9.27;5.57;;;;;;;14.63;57.04;101249.58;1793177;80;21317;-71
2022/09/05 02:53:00;;;;;;;9.73;5.03;;;;;;;14.68;56.96;101244.22;1807040;78;21348;-70
2022/09/05 02:56:04;;;;;;;9.37;5.20;;;;;;;14.70;57.12;101248.23;1764247;80;21367;-69
2022/09/05 02:58:48;;;;;;;9.57;5.00;;;;;;;14.72;56.90;101238.03;1787275;80;21177;-69
2022/09/05 03:02:05;;;;;;;8.10;5.23;;;;;;;14.75;56.93;101234.00;1769474;80;21406;-69
2022/09/05 03:04:38;;;;;;;10.87;5.17;;;;;;;14.76;56.71;101239.09;1770989;80;21147;-68
2022/09/05 03:07:22;;;;;;;9.53;5.03;;;;;;;14.77;56.56;101234.52;1795409;78;21253;-69
2022/09/05 03:10:23;;;;;;;8.33;5.10;;;;;;;14.80;56.12;101234.53;1803748;78;21219;-69
2022/09/05 03:13:44;;;;;;;7.83;4.80;;;;;;;14.82;55.63;101239.92;1812832;79;21163;-69
2022/09/05 03:16:23;;;;;;;7.23;4.60;;;;;;;14.85;55.23;101246.65;1825476;78;21447;-69
2022/09/05 03:19:11;;;;;;;7.00;4.47;;;;;;;14.86;55.03;101242.88;1792481;78;21335;-70
2022/09/05 03:22:09;;;;;;;8.43;5.00;;;;;;;14.89;55.10;101245.03;1791207;80;21268;-68
2022/09/05 03:24:44;;;;;;;7.60;4.80;;;;;;;14.88;54.88;101241.54;1771395;78;21277;-69
2022/09/05 03:27:36;;;;;;;9.07;4.67;;;;;;;14.89;53.56;101243.69;1791831;80;21324;-69
2022/09/05 03:30:21;;;;;;;;;;;;;;;14.90;52.95;101244.75;1764521;81;21065;-69
2022/09/05 03:33:19;;;;;;;6.97;4.40;;;;;;;14.90;51.15;101247.98;1799998;78;20144;-69
2022/09/05 03:36:10;;;;;;;7.80;4.60;;;;;;;14.92;50.28;101251.22;1794564;78;21296;-68
2022/09/05 03:39:06;;;;;;;7.70;4.53;;;;;;;14.94;49.49;101255.80;1799221;78;21248;-70
2022/09/05 03:41:54;;;;;;;7.40;4.47;;;;;;;15.01;49.58;101255.80;1786497;80;21213;-69
2022/09/05 03:44:43;;;;;;;6.97;4.50;;;;;;;15.07;49.62;101249.88;1793192;79;21575;-69
2022/09/05 03:47:30;;;;;;;6.90;4.70;;;;;;;15.13;49.37;101254.16;1795120;78;21248;-70
2022/09/05 03:50:08;;;;;;;7.23;4.33;;;;;;;15.17;49.06;101251.77;1818112;78;21339;-68
2022/09/05 03:53:02;;;;;;;8.00;4.60;;;;;;;15.18;49.39;101242.06;1795450;78;21207;-69
2022/09/05 03:55:45;;;;;;;7.47;4.67;;;;;;;15.18;49.70;101242.06;1793043;79;21853;-69
2022/09/05 03:58:33;;;;;;;5.90;4.10;;;;;;;15.16;49.57;101237.47;1812454;78;21361;-69
2022/09/05 04:01:24;;;;;;;7.37;4.30;;;;;;;15.13;49.08;101246.09;1822804;78;21132;-69
2022/09/05 04:04:01;;;;;;;9.57;4.70;;;;;;;15.12;48.45;101240.45;1792301;80;21222;-69
2022/09/05 04:06:43;;;;;;;9.33;5.17;;;;;;;15.13;48.34;101236.67;1790292;80;21294;-69
2022/09/05 04:09:30;;;;;;;7.22;4.75;;;;;;;15.14;47.71;101239.65;1800705;78;21813;-70
2022/09/05 04:12:14;;;;;;;6.40;4.37;;;;;;;15.17;47.97;101243.15;1793064;80;21097;-70
2022/09/05 04:15:03;;;;;;;7.83;5.17;;;;;;;15.20;47.75;101243.12;1773345;80;21225;-70
2022/09/05 04:17:45;;;;;;;9.33;5.03;;;;;;;15.27;47.54;101244.19;1773560;78;21811;-69
2022/09/05 04:20:33;;;;;;;7.40;4.97;;;;;;;15.31;47.59;101242.59;1822400;78;21506;-71
2022/09/05 04:23:23;;;;;;;8.77;5.03;;;;;;;15.38;47.74;101247.15;1825651;78;21276;-70
2022/09/05 04:26:29;;;;;;;7.50;4.67;;;;;;;15.45;47.73;101243.09;1814835;78;21029;-70
2022/09/05 04:29:04;;;;;;;8.50;4.90;;;;;;;15.51;47.41;101243.09;1825772;78;21195;-70
2022/09/05 04:31:39;;;;;;;8.10;5.07;;;;;;;15.53;47.82;101239.56;1791640;79;21333;-69
2022/09/05 04:34:51;;;;;;;7.07;4.60;;;;;;;15.56;47.83;101242.52;1790642;80;21150;-69
2022/09/05 04:37:54;;;;;;;7.50;4.72;;;;;;;15.62;47.85;101241.97;1774290;78;21222;-70
2022/09/05 04:40:41;;;;;;;8.20;5.07;;;;;;;15.68;47.95;101243.60;1710689;78;21090;-70
2022/09/05 04:43:19;;;;;;;8.37;5.20;;;;;;;15.71;47.76;101245.20;1798254;79;21852;-71
2022/09/05 04:46:07;;;;;;;10.20;5.27;;;;;;;15.77;47.79;101245.20;1794432;78;21338;-70
2022/09/05 04:48:39;;;;;;;10.27;5.60;;;;;;;15.82;47.37;101244.63;1764551;81;21671;-70
2022/09/05 04:51:09;;;;;;;9.65;5.25;;;;;;;15.87;47.24;101242.47;1792153;78;21308;-70
2022/09/05 04:53:55;;;;;;;8.50;5.23;;;;;;;15.94;47.19;101248.36;1765367;78;21038;-69
2022/09/05 04:56:26;;;;;;;9.97;5.20;;;;;;;16.02;47.38;101246.97;1807475;78;21667;-70
2022/09/05 04:58:59;;;;;;;7.97;5.42;;;;;;;16.08;47.37;101248.56;1811973;78;21263;-70
2022/09/05 05:01:30;;;;;;;8.00;4.77;;;;;;;16.14;47.31;101242.07;1821444;78;21050;-71
2022/09/05 05:04:06;;;;;;;7.75;4.65;;;;;;;16.17;46.68;101237.47;1804813;78;21356;-71
2022/09/05 05:06:41;;;;;;;8.80;5.43;;;;;;;16.19;46.71;101239.36;1816652;77;21151;-71
2022/09/05 05:09:29;;;;;;;9.40;5.40;;;;;;;16.21;46.49;101237.17;1781793;78;21857;-71
2022/09/05 05:12:07;;;;;;;10.03;5.60;;;;;;;16.28;46.44;101235.52;1777979;80;21234;-71
2022/09/05 05:14:56;;;;;;;9.13;6.00;;;;;;;16.37;46.06;101235.20;1809875;78;21475;-71
2022/09/05 05:17:40;;;;;;;9.80;5.40;;;;;;;16.43;46.14;101236.79;1754263;78;21385;-71
2022/09/05 05:20:24;;;;;;;7.63;5.40;;;;;;;16.64;46.29;101242.84;1777463;78;21344;-71
2022/09/05 05:23:18;;;;;;;10.13;6.00;;;;;;;16.64;46.29;101242.84;1807437;78;21385;-72
2022/09/05 05:25:50;;;;;;;9.15;5.65;;;;;;;16.75;46.10;101244.95;1782786;79;21327;-71
2022/09/05 05:28:23;;;;;;;9.30;5.50;;;;;;;16.83;45.88;101239.77;1776174;79;21065;-71
2022/09/05 05:30:49;;;;;;;10.10;6.07;;;;;;;16.83;45.88;101239.77;1810101;78;21537;-70
2022/09/05 05:33:34;;;;;;;9.60;6.23;;;;;;;16.83;45.78;101244.36;1784192;78;21501;-71
2022/09/05 05:36:01;;;;;;;8.07;5.67;;;;;;;16.89;45.80;101248.62;1807609;78;21426;-71
2022/09/05 05:38:52;;;;;;;9.53;5.87;;;;;;;16.93;45.47;101246.97;1777725;79;21621;-70
2022/09/05 05:41:39;;;;;;;12.37;6.10;;;;;;;16.87;45.55;101229.21;1772881;78;21407;-71
2022/09/05 05:44:17;;;;;;;10.60;5.73;;;;;;;16.85;45.81;101239.50;1803954;78;21344;-71
2022/09/05 05:46:48;;;;;;;10.00;6.20;;;;;;;16.90;46.12;101244.84;1779567;79;21755;-71
2022/09/05 05:49:51;;;;;;;8.93;5.50;;;;;;;16.90;46.12;101244.84;1798122;78;21551;-71
2022/09/05 05:52:42;;;;;;;8.50;5.80;;;;;;;17.13;45.81;101236.54;1670226;84;21843;-70
2022/09/05 05:55:34;;;;;;;9.25;5.35;;;;;;;17.13;45.81;101236.54;1759832;79;21757;-71
2022/09/05 05:58:30;;;;;;;9.55;5.90;;;;;;;17.27;46.16;101243.42;1770940;78;21128;-72
2022/09/05 06:01:37;;;;;;;8.27;5.27;;;;;;;17.40;45.69;101242.75;1801867;78;21875;-71
2022/09/05 06:04:43;;;;;;;10.43;5.93;;;;;;;17.53;45.68;101240.72;1774149;80;21738;-72
2022/09/05 06:07:24;;;;;;;8.67;5.70;;;;;;;17.59;45.71;101250.38;1807709;78;21667;-72
2022/09/05 06:10:35;;;;;;;7.00;5.13;;;;;;;17.72;45.70;101246.73;1772181;79;22222;-71
2022/09/05 06:13:34;;;;;;;10.03;5.90;;;;;;;17.74;45.30;101248.62;1771026;78;22114;-72
2022/09/05 06:16:27;;;;;;;11.43;6.23;;;;;;;17.78;45.47;101253.73;1813492;78;21685;-70
2022/09/05 06:19:17;;;;;;;8.60;5.40;;;;;;;17.85;45.59;101259.59;1819385;77;21715;-72
2022/09/05 06:22:04;;;;;;;10.67;5.97;;;;;;;17.92;45.45;101260.03;1812584;78;21085;-71
2022/09/05 06:25:09;;;;;;;10.37;6.50;;;;;;;17.93;44.96;101265.72;1817856;77;21714;-70
2022/09/05 06:28:17;;;;;;;8.73;5.43;;;;;;;17.92;45.29;101264.64;1824949;77;21755;-70
2022/09/05 06:31:12;;;;;;;11.07;5.97;;;;;;;18.01;45.58;101254.80;1778701;78;21746;-71
2022/09/05 06:34:20;;;;;;;8.80;5.67;;;;;;;18.08;45.35;101266.06;1802194;78;21769;-71
2022/09/05 06:37:35;;;;;;;9.90;6.10;;;;;;;18.17;45.43;101260.83;1816956;77;21838;-71
2022/09/05 06:40:54;;;;;;;9.97;5.67;;;;;;;18.28;45.11;101260.93;1815037;77;21806;-73
2022/09/05 06:43:51;;;;;;;10.27;5.80;;;;;;;18.41;45.13;101262.91;1795642;78;21730;-73
2022/09/05 06:46:34;;;;;;;9.23;5.80;;;;;;;18.56;44.68;101263.25;1814699;78;21814;-72
2022/09/05 06:49:16;;;;;;;8.67;5.73;;;;;;;18.89;44.98;101265.48;1809718;78;21795;-72
2022/09/05 06:52:12;;;;;;;;;;;;;;;18.89;44.98;101265.48;1817392;78;21017;-70
2022/09/05 06:55:18;;;;;;;10.43;5.90;;;;;;;18.98;44.11;101270.45;1803809;78;20170;-73
2022/09/05 06:58:06;;;;;;;10.77;6.03;;;;;;;19.09;44.33;101269.75;1726491;82;21276;-72
2022/09/05 07:00:44;;;;;;;10.80;6.23;;;;;;;19.31;44.20;101265.02;1730678;82;21147;-70
2022/09/05 07:03:40;;;;;;;11.97;6.70;;;;;;;19.49;43.64;101261.20;1770941;78;21014;-73
2022/09/05 07:06:32;;;;;;;9.97;6.20;;;;;;;19.70;43.45;101264.34;1793561;80;21078;-73
2022/09/05 07:09:20;;;;;;;12.40;6.97;;;;;;;19.89;42.50;101268.55;1779370;80;21055;-71
2022/09/05 07:12:11;;;;;;;11.27;6.43;;;;;;;20.03;42.03;101278.58;1761230;81;21172;-73
2022/09/05 07:15:02;;;;;;;13.03;7.10;;;;;;;20.12;42.08;101274.86;1775805;79;20986;-71
2022/09/05 07:17:50;;;;;;;13.58;7.22;;;;;;;20.32;41.26;101273.61;1793126;80;21075;-72
2022/09/05 07:20:27;;;;;;;11.87;7.07;;;;;;;20.45;40.80;101284.75;1769818;79;21106;-73
2022/09/05 07:23:00;;;;;;;17.23;7.53;;;;;;;20.46;41.27;101289.06;1762357;81;21025;-73
2022/09/05 07:25:29;;;;;;;14.00;7.40;;;;;;;20.46;41.29;101291.21;1793179;80;21261;-73
2022/09/05 07:28:07;;;;;;;12.83;8.70;;;;;;;20.46;40.75;101287.70;1760528;81;21008;-72
2022/09/05 07:30:34;;;;;;;61.73;42.30;;;;;;;20.43;40.46;101293.73;1791598;80;21069;-72
2022/09/05 07:33:01;;;;;;;127.83;91.20;;;;;;;20.38;40.40;101323.95;1760508;81;21620;-73
2022/09/05 07:35:37;;;;;;;138.20;101.67;;;;;;;20.26;40.24;101302.52;1793270;80;20998;-74
2022/09/05 07:38:14;;;;;;;167.47;120.63;;;;;;;20.08;40.67;101300.19;1760171;81;21317;-74
2022/09/05 07:40:57;;;;;;;230.63;167.30;;;;;;;19.95;41.06;101309.13;1793160;80;21168;-71
2022/09/05 07:43:31;;;;;;;246.53;175.27;;;;;;;19.83;41.30;101305.00;1759866;81;21055;-74
2022/09/05 07:46:11;;;;;;;257.40;183.47;;;;;;;19.78;41.64;101305.11;1793369;80;21063;-73
2022/09/05 07:48:46;;;;;;;237.00;171.03;;;;;;;19.73;41.49;101301.69;1793937;80;20987;-74
2022/09/05 07:51:25;;;;;;;250.73;180.70;;;;;;;19.69;41.60;101296.06;1760930;81;21114;-73
2022/09/05 07:53:57;;;;;;;249.07;181.53;;;;;;;19.65;41.88;101304.55;1764060;80;21011;-73
2022/09/05 07:57:05;;;;;;;231.93;175.10;;;;;;;19.64;41.50;101312.41;1760760;81;21101;-72
2022/09/05 07:59:34;;;;;;;236.83;174.90;;;;;;;19.63;41.49;101329.23;1819294;78;21014;-74
2022/09/05 08:02:00;;;;;;;210.90;149.33;;;;;;;19.57;42.07;101356.69;1817383;78;20973;-71
2022/09/05 08:04:31;;;;;;;190.77;137.37;;;;;;;19.49;42.47;101348.70;1823382;78;21824;-71
2022/09/05 08:07:01;;;;;;;182.83;126.83;;;;;;;19.41;42.49;101352.91;1835320;77;21079;-72
2022/09/05 08:09:35;;;;;;;177.80;127.23;;;;;;;19.33;42.70;101352.21;1799900;78;20967;-72
2022/09/05 08:12:16;;;;;;;146.23;103.77;;;;;;;19.23;42.51;101352.94;1825701;78;20933;-73
2022/09/05 08:14:58;;;;;;;121.37;84.47;;;;;;;19.08;42.54;101350.70;1781641;78;20971;-72
2022/09/05 08:17:24;;;;;;;101.47;69.67;;;;;;;18.86;42.82;101366.21;1791125;80;21145;-75
2022/09/05 08:20:06;;;;;;;88.70;63.97;;;;;;;18.59;44.18;101380.36;1760311;81;20963;-73
2022/09/05 08:22:57;;;;;;;78.93;54.53;;;;;;;18.41;45.60;101361.64;1804591;78;21015;-72
2022/09/05 08:25:36;;;;;;;74.47;52.13;;;;;;;18.18;46.68;101351.66;1740120;80;21558;-73
2022/09/05 08:28:27;;;;;;;71.30;49.87;;;;;;;17.77;48.24;101332.64;1793148;80;21046;-74
2022/09/05 08:31:03;;;;;;;74.20;49.40;;;;;;;17.77;48.24;101332.64;1794703;78;21025;-74
2022/09/05 08:33:35;;;;;;;68.90;48.10;;;;;;;17.53;49.88;101339.86;1793064;80;21011;-71
2022/09/05 08:36:35;;;;;;;64.70;44.23;;;;;;;17.53;49.88;101339.86;1793186;80;21085;-73
2022/09/05 08:39:03;;;;;;;55.53;41.50;;;;;;;17.49;50.40;101336.92;1802536;78;21764;-72
2022/09/05 08:41:41;;;;;;;60.63;41.73;;;;;;;17.46;50.96;101342.09;1812354;78;21606;-73
2022/09/05 08:44:26;;;;;;;53.43;39.83;;;;;;;17.40;51.65;101365.63;1791857;79;21753;-72
2022/09/05 08:47:01;;;;;;;57.17;41.43;;;;;;;17.28;53.49;101371.41;1783606;80;22262;-72
2022/09/05 08:49:35;;;;;;;53.77;36.33;;;;;;;17.05;53.90;101350.53;1823599;78;22124;-71
2022/09/05 08:52:27;;;;;;;48.87;34.93;;;;;;;17.00;54.02;101323.02;1812451;79;21721;-71
2022/09/05 08:55:12;;;;;;;44.47;33.80;;;;;;;17.07;54.85;101331.59;1793336;79;21751;-72
2022/09/05 08:57:59;;;;;;;46.93;35.13;;;;;;;17.11;55.08;101327.27;1793931;78;21854;-70
2022/09/05 09:00:26;;;;;;;45.37;33.13;;;;;;;17.11;55.29;101318.37;1792770;80;21715;-71
2022/09/05 09:03:29;;;;;;;47.83;33.33;;;;;;;17.16;55.27;101321.55;1797972;78;21672;-73
2022/09/05 09:06:12;;;;;;;51.73;34.40;;;;;;;17.23;55.53;101314.73;1797874;78;21630;-72
2022/09/05 09:09:05;;;;;;;49.73;36.33;;;;;;;17.32;55.77;101304.14;1808450;78;21636;-73
2022/09/05 09:11:56;;;;;;;52.60;35.70;;;;;;;17.46;56.00;101300.23;1820991;78;21710;-72
2022/09/05 09:14:53;;;;;;;54.42;36.95;;;;;;;17.65;56.07;101301.12;1822539;78;22264;-71
2022/09/05 09:17:44;;;;;;;51.00;38.37;;;;;;;17.85;55.81;101302.83;1698292;83;21108;-71
2022/09/05 09:20:36;;;;;;;52.90;37.77;;;;;;;18.09;55.38;101296.60;1809022;78;21671;-72
2022/09/05 09:23:19;;;;;;;61.28;41.77;;;;;;;18.32;55.02;101302.52;1823758;78;22207;-71
2022/09/05 09:26:14;;;;;;;53.67;36.73;;;;;;;18.60;54.04;101301.34;1837594;78;21132;-73
2022/09/05 09:29:02;;;;;;;50.50;35.73;;;;;;;18.82;53.06;101290.77;1823690;78;22144;-73
2022/09/05 09:31:59;;;;;;;45.17;33.03;;;;;;;19.05;52.23;101298.52;1823493;78;21038;-72
2022/09/05 09:34:34;;;;;;;46.90;33.70;;;;;;;19.18;51.65;101299.12;1837964;78;21648;-72
2022/09/05 09:37:29;;;;;;;41.13;30.07;;;;;;;19.21;51.31;101290.38;1823310;78;20939;-71
2022/09/05 09:40:42;;;;;;;41.07;30.37;;;;;;;19.26;51.31;101296.82;1795754;78;21113;-73
2022/09/05 09:43:29;;;;;;;34.70;25.07;;;;;;;19.41;50.85;101283.82;1837535;77;21071;-73
2022/09/05 09:46:20;;;;;;;30.40;22.80;;;;;;;19.67;50.38;101283.36;1823577;78;21023;-72
2022/09/05 09:49:06;;;;;;;28.83;22.35;;;;;;;19.85;49.59;101284.38;1823596;78;21038;-72
2022/09/05 09:51:56;;;;;;;27.03;21.27;;;;;;;20.01;47.97;101276.75;1837649;77;21024;-72
2022/09/05 09:54:40;;;;;;;28.20;20.87;;;;;;;20.13;47.55;101271.03;1823439;78;21121;-72
2022/09/05 09:58:02;;;;;;;29.17;21.00;;;;;;;20.31;46.99;101272.02;1842973;77;21077;-72
2022/09/05 10:01:05;;;;;;;25.30;17.07;;;;;;;20.41;46.82;101268.84;1793408;80;20951;-72
2022/09/05 10:03:38;;;;;;;22.45;16.23;;;;;;;20.59;45.27;101266.53;1796121;78;21042;-72
2022/09/05 10:06:42;;;;;;;19.70;14.33;;;;;;;20.79;44.74;101261.97;1825449;78;21648;-72
2022/09/05 10:09:32;;;;;;;20.13;14.93;;;;;;;20.98;43.66;101259.07;1824802;78;21140;-73
2022/09/05 10:12:24;;;;;;;17.30;10.87;;;;;;;21.15;42.61;101247.50;1825780;78;21011;-71
2022/09/05 10:15:21;;;;;;;;;;;;;;;21.30;41.79;101250.39;1828787;78;20959;-72
2022/09/05 10:18:26;;;;;;;18.30;12.37;;;;;;;21.43;40.08;101244.09;1825864;78;20157;-73
2022/09/05 10:21:25;;;;;;;17.57;10.90;;;;;;;21.44;39.83;101240.80;1825456;78;21045;-72
2022/09/05 10:24:34;;;;;;;16.97;11.40;;;;;;;21.49;39.65;101240.68;1825936;78;21538;-70
2022/09/05 10:27:24;;;;;;;15.23;11.40;;;;;;;21.36;39.96;101245.09;1826039;78;20991;-73
2022/09/05 10:30:26;;;;;;;16.70;10.30;;;;;;;21.17;40.02;101241.77;1825984;78;21635;-72
2022/09/05 10:33:45;;;;;;;15.47;9.87;;;;;;;21.11;40.73;101232.15;1818910;78;20967;-71
2022/09/05 10:36:27;;;;;;;11.27;9.20;;;;;;;21.06;40.22;101233.09;1787008;80;21043;-73
2022/09/05 10:39:18;;;;;;;13.73;9.67;;;;;;;20.97;39.93;101227.60;1756094;81;21196;-73
2022/09/05 10:42:01;;;;;;;12.70;8.67;;;;;;;20.97;39.97;101222.17;1756666;81;20999;-73
2022/09/05 10:44:56;;;;;;;13.90;8.77;;;;;;;21.19;39.88;101222.70;1748057;81;21051;-73
2022/09/05 10:48:05;;;;;;;11.27;8.10;;;;;;;21.43;39.31;101222.34;1756151;81;20990;-72
2022/09/05 10:50:43;;;;;;;11.63;7.87;;;;;;;21.62;38.48;101215.30;1754593;81;20988;-71
2022/09/05 10:53:42;;;;;;;9.83;6.10;;;;;;;21.83;37.79;101228.30;1756037;81;21166;-70
2022/09/05 10:56:17;;;;;;;8.97;5.07;;;;;;;22.03;36.79;101233.14;1745764;81;20948;-71
2022/09/05 10:59:05;;;;;;;8.00;5.37;;;;;;;22.25;35.57;101226.80;1755777;81;20959;-71
2022/09/05 11:02:05;;;;;;;6.60;4.53;;;;;;;22.51;34.73;101219.17;1754422;81;21019;-73
2022/09/05 11:05:14;;;;;;;4.67;2.80;;;;;;;22.68;34.10;101217.81;1776505;78;21090;-71
2022/09/05 11:07:54;;;;;;;7.30;3.73;;;;;;;22.68;33.15;101230.06;1793264;78;21101;-72
2022/09/05 11:10:50;;;;;;;7.00;3.97;;;;;;;22.38;34.93;101225.84;1794428;78;20967;-72
2022/09/05 11:13:55;;;;;;;7.57;3.73;;;;;;;21.93;36.16;101229.36;1773827;80;21006;-72
2022/09/05 11:16:40;;;;;;;9.30;3.80;;;;;;;21.30;36.11;101221.86;1792993;80;20971;-70
2022/09/05 11:19:23;;;;;;;4.63;3.20;;;;;;;20.73;37.23;101232.01;1793057;80;21450;-71
2022/09/05 11:22:00;;;;;;;7.63;3.70;;;;;;;20.55;37.96;101228.34;1793194;80;21564;-71
2022/09/05 11:25:04;;;;;;;5.90;3.20;;;;;;;20.57;37.44;101222.63;1793362;80;20995;-72
2022/09/05 11:27:47;;;;;;;5.87;3.30;;;;;;;20.64;36.75;101216.21;1793334;80;21014;-72
2022/09/05 11:30:22;;;;;;;6.83;3.83;;;;;;;20.83;36.82;101208.67;1793152;80;20964;-74
2022/09/05 11:33:40;;;;;;;6.90;3.70;;;;;;;21.05;34.99;101205.11;1793144;80;20971;-72
2022/09/05 11:36:28;;;;;;;5.90;3.67;;;;;;;21.20;33.75;101201.20;1793321;80;21274;-71
2022/09/05 11:39:16;;;;;;;5.80;3.53;;;;;;;21.41;33.53;101195.23;1793308;80;21078;-73
2022/09/05 11:42:00;;;;;;;7.20;4.77;;;;;;;21.54;32.33;101192.95;1793216;80;21034;-73
2022/09/05 11:45:07;;;;;;;8.47;5.13;;;;;;;21.51;32.65;101201.73;1793294;80;21018;-72
2022/09/05 11:48:02;;;;;;;8.57;4.97;;;;;;;21.39;33.09;101196.09;1793202;80;20963;-71
2022/09/05 11:51:01;;;;;;;7.67;4.70;;;;;;;21.31;33.67;101189.48;1793093;80;21259;-72
2022/09/05 11:53:48;;;;;;;7.77;5.10;;;;;;;21.27;33.99;101185.80;1793110;80;21026;-73
2022/09/05 11:57:12;;;;;;;8.03;5.10;;;;;;;21.21;34.09;101189.20;1793588;80;20979;-71
2022/09/05 12:00:21;;;;;;;8.00;5.00;;;;;;;21.17;34.54;101193.67;1823175;78;21036;-73
2022/09/05 12:03:27;;;;;;;7.30;5.47;;;;;;;21.06;34.73;101186.36;1793653;80;21104;-72
2022/09/05 12:06:16;;;;;;;9.93;5.57;;;;;;;20.99;35.56;101191.97;1790904;80;21143;-71
2022/09/05 12:09:18;;;;;;;8.10;5.00;;;;;;;20.86;35.92;101192.30;1825345;78;21135;-71
2022/09/05 12:12:35;;;;;;;9.13;5.00;;;;;;;20.79;36.05;101189.23;1794008;80;21459;-72
2022/09/05 12:15:32;;;;;;;8.03;5.07;;;;;;;20.73;35.89;101192.64;1767936;80;21030;-72
2022/09/05 12:18:27;;;;;;;7.03;4.30;;;;;;;20.70;35.67;101199.25;1825720;78;20948;-73
2022/09/05 12:21:27;;;;;;;10.30;5.10;;;;;;;20.64;35.28;101189.06;1793328;80;21171;-72
2022/09/05 12:24:46;;;;;;;9.65;5.33;;;;;;;20.61;34.76;101182.34;1793364;80;20988;-73
2022/09/05 12:27:24;;;;;;;7.90;5.00;;;;;;;20.63;34.67;101182.02;1699979;84;21039;-71
2022/09/05 12:30:07;;;;;;;8.70;5.03;;;;;;;20.63;34.55;101176.59;1748731;81;21064;-72
2022/09/05 12:32:57;;;;;;;8.73;4.43;;;;;;;20.73;35.00;101180.43;1789125;78;21097;-72
2022/09/05 12:35:44;;;;;;;8.53;4.43;;;;;;;20.93;34.44;101176.95;1824395;78;21094;-72
2022/09/05 12:38:52;;;;;;;9.40;4.70;;;;;;;21.16;34.43;101172.23;1765238;80;20999;-72
2022/09/05 12:41:32;;;;;;;6.73;3.57;;;;;;;21.40;34.72;101167.82;1825559;78;21538;-73
2022/09/05 12:44:42;;;;;;;5.43;3.43;;;;;;;21.64;33.73;101168.19;1793267;80;21008;-73
2022/09/05 12:47:19;;;;;;;7.50;3.50;;;;;;;21.74;33.83;101165.73;1786991;80;21078;-72
2022/09/05 12:50:07;;;;;;;5.50;2.97;;;;;;;21.85;32.11;101166.22;1793330;79;21149;-72
2022/09/05 12:52:47;;;;;;;6.50;3.63;;;;;;;21.94;32.79;101162.96;1825604;78;20983;-72
2022/09/05 12:55:33;;;;;;;7.13;4.90;;;;;;;22.03;31.73;101162.41;1792983;80;21039;-75
2022/09/05 12:58:22;;;;;;;13.47;8.03;;;;;;;22.09;31.18;101161.14;1793016;79;21077;-72